Time,TemperatureF,DewpointF,PressureIn,WindDirection,WindDirectionDegrees,WindSpeedMPH,WindSpeedGustMPH,Humidity,HourlyPrecipIn,Conditions,Clouds,dailyrainin,SoftwareType,DateUTC
2013-02-23 00:15:00,37.0,35.0,29.88,North,9,0.0,4.0,93,0.00,,,0.00,weatherlink.com 1.10,2013-02-23 08:15:00,
2013-02-23 00:30:00,37.0,35.0,29.88,WNW,288,1.0,5.0,92,0.00,,,0.00,weatherlink.com 1.10,2013-02-23 08:30:00,
2013-02-23 00:45:00,36.7,35.0,29.89,SW,218,0.0,1.0,92,0.00,,,0.00,weatherlink.com 1.10,2013-02-23 08:45:00,
2013-02-23 01:00:00,36.5,34.0,29.89,ESE,120,0.0,4.0,92,0.00,,,0.00,weatherlink.com 1.10,2013-02-23 09:00:00,
2013-02-23 01:15:00,36.5,34.0,29.90,East,79,0.0,8.0,92,0.00,,,0.00,weatherlink.com 1.10,2013-02-23 09:15:00,
2013-02-23 01:30:00,36.3,35.0,29.90,West,281,2.0,3.0,93,0.00,,,0.00,weatherlink.com 1.10,2013-02-23 09:30:00,
2013-02-23 01:45:00,36.0,34.0,29.91,NE,43,0.0,3.0,93,0.00,,,0.00,weatherlink.com 1.10,2013-02-23 09:45:00,
2013-02-23 02:00:00,36.1,35.0,29.91,SE,133,0.0,3.0,94,0.00,,,0.00,weatherlink.com 1.10,2013-02-23 10:00:00,
2013-02-23 02:15:00,36.2,35.0,29.92,NNE,19,0.0,2.0,94,0.00,,,0.00,weatherlink.com 1.10,2013-02-23 10:15:00,
2013-02-23 02:30:00,36.6,35.0,29.92,SE,142,2.0,4.0,94,0.00,,,0.00,weatherlink.com 1.10,2013-02-23 10:30:00,
2013-02-23 02:45:00,37.3,36.0,29.93,SE,145,0.0,5.0,94,0.00,,,0.00,weatherlink.com 1.10,2013-02-23 10:45:00,
2013-02-23 03:00:00,37.7,36.0,29.93,SW,226,0.0,3.0,93,0.00,,,0.00,weatherlink.com 1.10,2013-02-23 11:00:00,
2013-02-23 03:15:00,37.9,36.0,29.94,South,189,0.0,3.0,94,0.00,,,0.00,weatherlink.com 1.10,2013-02-23 11:15:00,
2013-02-23 03:30:00,38.2,36.0,29.94,WSW,238,0.0,3.0,93,0.00,,,0.00,weatherlink.com 1.10,2013-02-23 11:30:00,
2013-02-23 03:45:00,38.4,37.0,29.95,SW,229,1.0,5.0,93,0.00,,,0.00,weatherlink.com 1.10,2013-02-23 11:45:00,
2013-02-23 04:00:00,38.4,37.0,29.96,WSW,239,0.0,5.0,93,0.00,,,0.00,weatherlink.com 1.10,2013-02-23 12:00:00,
2013-02-23 04:15:00,38.2,36.0,29.96,SSW,193,0.0,1.0,93,0.00,,,0.00,weatherlink.com 1.10,2013-02-23 12:15:00,
2013-02-23 04:30:00,37.7,36.0,29.97,SE,139,3.0,3.0,93,0.00,,,0.00,weatherlink.com 1.10,2013-02-23 12:30:00,
2013-02-23 04:45:00,37.0,36.0,29.97,SSW,204,0.0,2.0,94,0.00,,,0.00,weatherlink.com 1.10,2013-02-23 12:45:00,
2013-02-23 05:00:00,36.4,35.0,29.98,SSW,195,0.0,1.0,95,0.00,,,0.00,weatherlink.com 1.10,2013-02-23 13:00:00,
2013-02-23 05:15:00,36.0,35.0,29.98,South,169,0.0,1.0,96,0.00,,,0.00,weatherlink.com 1.10,2013-02-23 13:15:00,
2013-02-23 05:30:00,35.8,35.0,29.99,SSE,151,0.0,2.0,96,0.00,,,0.00,weatherlink.com 1.10,2013-02-23 13:30:00,
2013-02-23 05:45:00,35.5,35.0,30.00,SSW,213,0.0,0.0,96,0.00,,,0.00,weatherlink.com 1.10,2013-02-23 13:45:00,
2013-02-23 06:00:00,35.1,34.0,30.01,SSW,212,0.0,1.0,97,0.00,,,0.00,weatherlink.com 1.10,2013-02-23 14:00:00,
2013-02-23 06:15:00,34.8,34.0,30.02,SE,142,0.0,0.0,97,0.00,,,0.00,weatherlink.com 1.10,2013-02-23 14:15:00,
2013-02-23 06:30:00,34.6,34.0,30.03,SW,215,0.0,1.0,98,0.00,,,0.00,weatherlink.com 1.10,2013-02-23 14:30:00,
2013-02-23 06:46:00,34.3,34.0,30.04,SW,215,0.0,1.0,98,0.00,,,0.00,weatherlink.com 1.10,2013-02-23 14:46:00,
2013-02-23 07:01:00,33.5,33.0,30.04,SSW,210,0.0,0.0,97,0.00,,,0.00,weatherlink.com 1.10,2013-02-23 15:01:00,
2013-02-23 07:16:00,33.2,33.0,30.05,WSW,256,0.0,1.0,98,0.00,,,0.00,weatherlink.com 1.10,2013-02-23 15:16:00,
2013-02-23 07:31:00,32.8,32.0,30.06,WSW,256,0.0,0.0,98,0.00,,,0.00,weatherlink.com 1.10,2013-02-23 15:31:00,
2013-02-23 07:46:00,32.9,32.0,30.07,NNE,16,0.0,1.0,98,0.00,,,0.00,weatherlink.com 1.10,2013-02-23 15:46:00,
2013-02-23 08:01:00,33.4,33.0,30.07,WSW,256,0.0,1.0,99,0.00,,,0.00,weatherlink.com 1.10,2013-02-23 16:01:00,
2013-02-23 08:16:00,33.0,33.0,30.08,WSW,250,0.0,1.0,98,0.00,,,0.00,weatherlink.com 1.10,2013-02-23 16:16:00,
2013-02-23 08:31:00,33.7,34.0,30.09,SW,232,1.0,1.0,99,0.00,,,0.00,weatherlink.com 1.10,2013-02-23 16:31:00,
2013-02-23 08:46:00,35.2,35.0,30.10,WSW,243,0.0,1.0,99,0.00,,,0.00,weatherlink.com 1.10,2013-02-23 16:46:00,
2013-02-23 09:01:00,37.1,37.0,30.11,WSW,245,0.0,2.0,99,0.00,,,0.00,weatherlink.com 1.10,2013-02-23 17:01:00,
2013-02-23 09:16:00,38.3,38.0,30.12,ESE,120,1.0,3.0,97,0.00,,,0.00,weatherlink.com 1.10,2013-02-23 17:16:00,
2013-02-23 09:31:00,38.9,38.0,30.13,NE,53,2.0,4.0,95,0.00,,,0.00,weatherlink.com 1.10,2013-02-23 17:31:00,
2013-02-23 09:46:00,39.2,37.0,30.14,ENE,68,1.0,4.0,93,0.00,,,0.00,weatherlink.com 1.10,2013-02-23 17:46:00,
2013-02-23 10:01:00,39.6,38.0,30.14,SSE,162,0.0,1.0,93,0.00,,,0.00,weatherlink.com 1.10,2013-02-23 18:01:00,
2013-02-23 10:16:00,40.7,38.0,30.15,NE,43,1.0,2.0,91,0.00,,,0.00,weatherlink.com 1.10,2013-02-23 18:16:00,
2013-02-23 10:31:00,41.4,38.0,30.16,ENE,59,1.0,2.0,89,0.00,,,0.00,weatherlink.com 1.10,2013-02-23 18:31:00,
2013-02-23 10:46:00,42.1,39.0,30.16,ESE,117,0.0,3.0,87,0.00,,,0.00,weatherlink.com 1.10,2013-02-23 18:46:00,
2013-02-23 11:01:00,42.8,39.0,30.17,WNW,302,0.0,3.0,86,0.00,,,0.00,weatherlink.com 1.10,2013-02-23 19:01:00,
2013-02-23 11:16:00,44.0,40.0,30.17,NE,44,0.0,2.0,84,0.00,,,0.00,weatherlink.com 1.10,2013-02-23 19:16:00,
2013-02-23 11:32:00,46.0,40.0,30.18,ESE,113,0.0,5.0,80,0.00,,,0.00,weatherlink.com 1.10,2013-02-23 19:32:00,
2013-02-23 11:47:00,46.3,39.0,30.18,SE,136,0.0,6.0,77,0.00,,,0.00,weatherlink.com 1.10,2013-02-23 19:47:00,
2013-02-23 12:02:00,46.2,39.0,30.18,ESE,117,0.0,5.0,76,0.00,,,0.00,weatherlink.com 1.10,2013-02-23 20:02:00,
2013-02-23 12:17:00,46.3,39.0,30.19,NE,40,2.0,7.0,75,0.00,,,0.00,weatherlink.com 1.10,2013-02-23 20:17:00,
2013-02-23 12:32:00,46.8,39.0,30.18,South,174,0.0,6.0,75,0.00,,,0.00,weatherlink.com 1.10,2013-02-23 20:32:00,
2013-02-23 12:47:00,47.5,39.0,30.18,SE,146,3.0,5.0,73,0.00,,,0.00,weatherlink.com 1.10,2013-02-23 20:47:00,
2013-02-23 13:02:00,48.0,39.0,30.18,ENE,66,0.0,4.0,71,0.00,,,0.00,weatherlink.com 1.10,2013-02-23 21:02:00,
2013-02-23 13:17:00,48.3,40.0,30.19,NE,49,4.0,6.0,72,0.00,,,0.00,weatherlink.com 1.10,2013-02-23 21:17:00,
2013-02-23 13:32:00,48.4,40.0,30.19,NE,44,2.0,4.0,73,0.00,,,0.00,weatherlink.com 1.10,2013-02-23 21:32:00,
2013-02-23 13:47:00,48.3,39.0,30.19,NE,44,3.0,5.0,71,0.00,,,0.00,weatherlink.com 1.10,2013-02-23 21:47:00,
2013-02-23 14:02:00,48.4,38.0,30.20,ESE,115,2.0,4.0,68,0.00,,,0.00,weatherlink.com 1.10,2013-02-23 22:02:00,
2013-02-23 14:17:00,48.2,38.0,30.20,NE,41,5.0,6.0,69,0.00,,,0.00,weatherlink.com 1.10,2013-02-23 22:17:00,
2013-02-23 14:32:00,48.1,39.0,30.21,ESE,108,5.0,6.0,71,0.00,,,0.00,weatherlink.com 1.10,2013-02-23 22:32:00,
2013-02-23 14:47:00,48.5,39.0,30.21,NE,41,3.0,5.0,71,0.00,,,0.00,weatherlink.com 1.10,2013-02-23 22:47:00,
2013-02-23 15:02:00,48.7,39.0,30.22,NE,44,2.0,5.0,69,0.00,,,0.00,weatherlink.com 1.10,2013-02-23 23:02:00,
2013-02-23 15:17:00,48.3,39.0,30.22,SE,139,2.0,4.0,70,0.00,,,0.00,weatherlink.com 1.10,2013-02-23 23:17:00,
2013-02-23 15:32:00,48.5,39.0,30.23,ESE,123,0.0,3.0,70,0.00,,,0.00,weatherlink.com 1.10,2013-02-23 23:32:00,
2013-02-23 15:47:00,48.9,39.0,30.23,ESE,122,6.0,6.0,69,0.00,,,0.00,weatherlink.com 1.10,2013-02-23 23:47:00,
2013-02-23 16:02:00,49.1,39.0,30.23,ENE,58,1.0,6.0,69,0.00,,,0.00,weatherlink.com 1.10,2013-02-24 00:02:00,
2013-02-23 16:17:00,48.9,39.0,30.23,ESE,120,1.0,5.0,68,0.00,,,0.00,weatherlink.com 1.10,2013-02-24 00:17:00,
2013-02-23 16:32:00,48.4,39.0,30.24,SSE,157,0.0,6.0,69,0.00,,,0.00,weatherlink.com 1.10,2013-02-24 00:32:00,
2013-02-23 16:47:00,47.9,39.0,30.23,ESE,122,2.0,5.0,71,0.00,,,0.00,weatherlink.com 1.10,2013-02-24 00:47:00,
2013-02-23 17:17:00,47.4,39.0,30.25,NE,40,2.0,4.0,72,0.00,,,0.00,weatherlink.com 1.10,2013-02-24 01:17:00,
2013-02-23 17:32:00,46.5,39.0,30.25,East,84,2.0,5.0,75,0.00,,,0.00,weatherlink.com 1.10,2013-02-24 01:32:00,
2013-02-23 17:47:00,46.0,39.0,30.26,ENE,71,3.0,5.0,76,0.00,,,0.00,weatherlink.com 1.10,2013-02-24 01:47:00,
2013-02-23 18:02:00,45.4,38.0,30.27,NE,47,3.0,5.0,76,0.00,,,0.00,weatherlink.com 1.10,2013-02-24 02:02:00,
2013-02-23 18:17:00,44.8,38.0,30.28,NNE,17,2.0,3.0,77,0.00,,,0.00,weatherlink.com 1.10,2013-02-24 02:17:00,
2013-02-23 18:32:00,44.4,38.0,30.28,East,79,0.0,1.0,78,0.00,,,0.00,weatherlink.com 1.10,2013-02-24 02:32:00,
2013-02-23 18:47:00,44.3,38.0,30.28,NE,47,0.0,4.0,79,0.00,,,0.00,weatherlink.com 1.10,2013-02-24 02:47:00,
2013-02-23 19:02:00,44.1,38.0,30.29,NE,41,0.0,3.0,79,0.00,,,0.00,weatherlink.com 1.10,2013-02-24 03:02:00,
2013-02-23 19:17:00,43.8,38.0,30.29,ENE,64,0.0,3.0,80,0.00,,,0.00,weatherlink.com 1.10,2013-02-24 03:17:00,
2013-02-23 19:33:00,43.7,38.0,30.30,ESE,105,0.0,4.0,81,0.00,,,0.00,weatherlink.com 1.10,2013-02-24 03:33:00,
2013-02-23 19:48:00,43.4,38.0,30.31,SSW,203,0.0,0.0,81,0.00,,,0.00,weatherlink.com 1.10,2013-02-24 03:48:00,
2013-02-23 20:03:00,43.5,39.0,30.31,NE,43,0.0,2.0,83,0.00,,,0.00,weatherlink.com 1.10,2013-02-24 04:03:00,
2013-02-23 20:18:00,43.3,39.0,30.31,SE,125,0.0,0.0,83,0.00,,,0.00,weatherlink.com 1.10,2013-02-24 04:18:00,
2013-02-23 20:33:00,43.2,39.0,30.32,NE,49,3.0,4.0,84,0.00,,,0.00,weatherlink.com 1.10,2013-02-24 04:33:00,
2013-02-23 20:48:00,42.8,38.0,30.32,SSE,166,0.0,1.0,84,0.00,,,0.00,weatherlink.com 1.10,2013-02-24 04:48:00,
2013-02-23 21:03:00,42.5,39.0,30.32,NE,44,0.0,2.0,86,0.00,,,0.00,weatherlink.com 1.10,2013-02-24 05:03:00,
2013-02-23 21:18:00,42.2,38.0,30.32,SE,145,0.0,1.0,86,0.00,,,0.00,weatherlink.com 1.10,2013-02-24 05:18:00,
2013-02-23 21:33:00,40.9,37.0,30.33,SSE,158,0.0,1.0,87,0.00,,,0.00,weatherlink.com 1.10,2013-02-24 05:33:00,
2013-02-23 21:48:00,40.0,37.0,30.34,SSE,158,0.0,1.0,88,0.00,,,0.00,weatherlink.com 1.10,2013-02-24 05:48:00,
2013-02-23 22:03:00,39.5,36.0,30.34,SSW,207,0.0,0.0,87,0.00,,,0.00,weatherlink.com 1.10,2013-02-24 06:03:00,
2013-02-23 22:18:00,38.8,36.0,30.34,SSW,207,0.0,1.0,89,0.00,,,0.00,weatherlink.com 1.10,2013-02-24 06:18:00,
2013-02-23 22:33:00,38.9,36.0,30.34,WSW,248,0.0,0.0,88,0.00,,,0.00,weatherlink.com 1.10,2013-02-24 06:33:00,
2013-02-23 22:48:00,38.5,36.0,30.34,SSE,159,0.0,0.0,90,0.00,,,0.00,weatherlink.com 1.10,2013-02-24 06:48:00,
2013-02-23 23:03:00,38.2,36.0,30.35,SSE,153,0.0,0.0,90,0.00,,,0.00,weatherlink.com 1.10,2013-02-24 07:03:00,
2013-02-23 23:18:00,38.3,36.0,30.35,SSW,200,0.0,1.0,91,0.00,,,0.00,weatherlink.com 1.10,2013-02-24 07:18:00,
2013-02-23 23:33:00,38.4,36.0,30.35,SSW,193,0.0,2.0,91,0.00,,,0.00,weatherlink.com 1.10,2013-02-24 07:33:00,
2013-02-23 23:48:00,38.4,36.0,30.35,SSW,193,0.0,0.0,92,0.00,,,0.00,weatherlink.com 1.10,2013-02-24 07:48:00,